sensor_id;sensor_type;location;lat;lon;timestamp;pressure;altitude;pressure_sealevel;temperature
18474;BMP180;30265;52.408;13.500;2023-03-14T00:05:08;99548.00;;;17.40
18474;BMP180;30265;52.408;13.500;2023-03-14T00:15:32;99543.00;;;17.20
18474;BMP180;30265;52.408;13.500;2023-03-14T00:25:58;99486.00;;;17.00
18474;BMP180;30265;52.408;13.500;2023-03-14T00:36:21;99491.00;;;16.90
18474;BMP180;30265;52.408;13.500;2023-03-14T00:46:43;99475.00;;;16.70
18474;BMP180;30265;52.408;13.500;2023-03-14T00:57:06;99472.00;;;16.70
18474;BMP180;30265;52.408;13.500;2023-03-14T01:07:28;99449.00;;;16.70
18474;BMP180;30265;52.408;13.500;2023-03-14T01:17:52;99457.00;;;16.70
18474;BMP180;30265;52.408;13.500;2023-03-14T01:28:16;99511.00;;;16.80
18474;BMP180;30265;52.408;13.500;2023-03-14T01:38:40;99509.00;;;16.80
18474;BMP180;30265;52.408;13.500;2023-03-14T01:49:09;99511.00;;;16.80
18474;BMP180;30265;52.408;13.500;2023-03-14T01:59:35;99520.00;;;16.60
18474;BMP180;30265;52.408;13.500;2023-03-14T02:09:59;99497.00;;;16.50
18474;BMP180;30265;52.408;13.500;2023-03-14T02:20:33;99483.00;;;16.50
18474;BMP180;30265;52.408;13.500;2023-03-14T02:30:57;99478.00;;;16.50
18474;BMP180;30265;52.408;13.500;2023-03-14T02:41:19;99467.00;;;16.60
18474;BMP180;30265;52.408;13.500;2023-03-14T02:51:52;99449.00;;;16.60
18474;BMP180;30265;52.408;13.500;2023-03-14T03:02:14;99419.00;;;16.70
18474;BMP180;30265;52.408;13.500;2023-03-14T03:12:37;99384.00;;;16.60
18474;BMP180;30265;52.408;13.500;2023-03-14T03:22:59;99362.00;;;16.50
18474;BMP180;30265;52.408;13.500;2023-03-14T03:33:23;99407.00;;;16.50
18474;BMP180;30265;52.408;13.500;2023-03-14T03:43:45;99406.00;;;16.60
18474;BMP180;30265;52.408;13.500;2023-03-14T03:54:10;99406.00;;;16.50
18474;BMP180;30265;52.408;13.500;2023-03-14T04:04:32;99399.00;;;16.50
18474;BMP180;30265;52.408;13.500;2023-03-14T04:14:57;99402.00;;;16.40
18474;BMP180;30265;52.408;13.500;2023-03-14T04:25:19;99377.00;;;16.30
18474;BMP180;30265;52.408;13.500;2023-03-14T04:35:48;99361.00;;;16.30
18474;BMP180;30265;52.408;13.500;2023-03-14T04:46:10;99354.00;;;16.20
18474;BMP180;30265;52.408;13.500;2023-03-14T04:56:34;99330.00;;;16.10
18474;BMP180;30265;52.408;13.500;2023-03-14T05:06:57;99332.00;;;16.10
18474;BMP180;30265;52.408;13.500;2023-03-14T05:17:38;99327.00;;;16.10
18474;BMP180;30265;52.408;13.500;2023-03-14T05:28:19;99321.00;;;16.20
18474;BMP180;30265;52.408;13.500;2023-03-14T05:39:03;99329.00;;;16.10
18474;BMP180;30265;52.408;13.500;2023-03-14T05:49:47;99326.00;;;16.10
18474;BMP180;30265;52.408;13.500;2023-03-14T06:00:26;99319.00;;;16.20
18474;BMP180;30265;52.408;13.500;2023-03-14T06:11:02;99319.00;;;16.30
18474;BMP180;30265;52.408;13.500;2023-03-14T06:21:26;99316.00;;;16.40
18474;BMP180;30265;52.408;13.500;2023-03-14T06:31:48;99311.00;;;16.50
18474;BMP180;30265;52.408;13.500;2023-03-14T06:42:13;99323.00;;;16.60
18474;BMP180;30265;52.408;13.500;2023-03-14T06:52:36;99337.00;;;16.70
18474;BMP180;30265;52.408;13.500;2023-03-14T07:03:03;99355.00;;;16.90
18474;BMP180;30265;52.408;13.500;2023-03-14T07:13:30;99359.00;;;17.00
18474;BMP180;30265;52.408;13.500;2023-03-14T07:24:00;99364.00;;;17.00
18474;BMP180;30265;52.408;13.500;2023-03-14T07:34:24;99360.00;;;17.10
18474;BMP180;30265;52.408;13.500;2023-03-14T07:44:49;99371.00;;;17.10
18474;BMP180;30265;52.408;13.500;2023-03-14T07:55:11;99367.00;;;17.00
18474;BMP180;30265;52.408;13.500;2023-03-14T08:05:36;99351.00;;;17.60
18474;BMP180;30265;52.408;13.500;2023-03-14T08:15:58;99342.00;;;17.60
18474;BMP180;30265;52.408;13.500;2023-03-14T08:26:21;99337.00;;;17.60
18474;BMP180;30265;52.408;13.500;2023-03-14T08:36:44;99336.00;;;17.70
18474;BMP180;30265;52.408;13.500;2023-03-14T08:47:07;99354.00;;;17.70
18474;BMP180;30265;52.408;13.500;2023-03-14T08:57:29;99350.00;;;17.80
18474;BMP180;30265;52.408;13.500;2023-03-14T09:07:52;99367.00;;;17.60
18474;BMP180;30265;52.408;13.500;2023-03-14T09:18:14;99337.00;;;17.90
18474;BMP180;30265;52.408;13.500;2023-03-14T09:28:37;99312.00;;;19.10
18474;BMP180;30265;52.408;13.500;2023-03-14T09:38:59;99304.00;;;19.30
18474;BMP180;30265;52.408;13.500;2023-03-14T09:49:25;99296.00;;;19.80
18474;BMP180;30265;52.408;13.500;2023-03-14T09:59:50;99316.00;;;19.60
18474;BMP180;30265;52.408;13.500;2023-03-14T10:10:17;99334.00;;;19.10
18474;BMP180;30265;52.408;13.500;2023-03-14T10:20:42;99328.00;;;18.90
18474;BMP180;30265;52.408;13.500;2023-03-14T10:31:06;99338.00;;;18.80
18474;BMP180;30265;52.408;13.500;2023-03-14T10:41:30;99350.00;;;18.80
18474;BMP180;30265;52.408;13.500;2023-03-14T10:52:01;99334.00;;;18.80
18474;BMP180;30265;52.408;13.500;2023-03-14T11:02:45;99349.00;;;18.80
18474;BMP180;30265;52.408;13.500;2023-03-14T11:13:14;99348.00;;;18.60
18474;BMP180;30265;52.408;13.500;2023-03-14T11:23:42;99349.00;;;18.70
18474;BMP180;30265;52.408;13.500;2023-03-14T11:34:14;99344.00;;;18.60
18474;BMP180;30265;52.408;13.500;2023-03-14T11:44:38;99347.00;;;18.60
18474;BMP180;30265;52.408;13.500;2023-03-14T11:55:05;99348.00;;;18.10
18474;BMP180;30265;52.408;13.500;2023-03-14T12:05:39;99358.00;;;17.50
18474;BMP180;30265;52.408;13.500;2023-03-14T12:16:06;99362.00;;;16.80
18474;BMP180;30265;52.408;13.500;2023-03-14T12:26:51;99327.00;;;17.60
18474;BMP180;30265;52.408;13.500;2023-03-14T12:37:23;99307.00;;;18.20
18474;BMP180;30265;52.408;13.500;2023-03-14T12:48:00;99294.00;;;18.80
18474;BMP180;30265;52.408;13.500;2023-03-14T12:58:29;99275.00;;;19.00
18474;BMP180;30265;52.408;13.500;2023-03-14T13:08:53;99269.00;;;18.90
18474;BMP180;30265;52.408;13.500;2023-03-14T13:19:26;99247.00;;;19.20
18474;BMP180;30265;52.408;13.500;2023-03-14T13:29:49;99253.00;;;18.90
18474;BMP180;30265;52.408;13.500;2023-03-14T13:40:25;99290.00;;;19.20
18474;BMP180;30265;52.408;13.500;2023-03-14T13:50:56;99263.00;;;18.70
18474;BMP180;30265;52.408;13.500;2023-03-14T14:01:23;99246.00;;;19.20
18474;BMP180;30265;52.408;13.500;2023-03-14T14:11:47;99249.00;;;19.40
18474;BMP180;30265;52.408;13.500;2023-03-14T14:22:35;99237.00;;;19.50
18474;BMP180;30265;52.408;13.500;2023-03-14T14:33:27;99228.00;;;19.10
18474;BMP180;30265;52.408;13.500;2023-03-14T14:43:51;99231.00;;;19.40
18474;BMP180;30265;52.408;13.500;2023-03-14T14:54:15;99247.00;;;18.90
18474;BMP180;30265;52.408;13.500;2023-03-14T15:04:38;99235.00;;;18.60
18474;BMP180;30265;52.408;13.500;2023-03-14T15:15:00;99227.00;;;18.70
18474;BMP180;30265;52.408;13.500;2023-03-14T15:25:23;99250.00;;;18.20
18474;BMP180;30265;52.408;13.500;2023-03-14T15:36:06;99537.00;;;12.40
18474;BMP180;30265;52.408;13.500;2023-03-14T15:46:38;99623.00;;;11.70
18474;BMP180;30265;52.408;13.500;2023-03-14T15:57:00;99714.00;;;10.90
18474;BMP180;30265;52.408;13.500;2023-03-14T16:07:23;99759.00;;;10.60
18474;BMP180;30265;52.408;13.500;2023-03-14T16:17:45;99870.00;;;9.30
18474;BMP180;30265;52.408;13.500;2023-03-14T16:28:08;99951.00;;;8.10
18474;BMP180;30265;52.408;13.500;2023-03-14T16:38:31;100025.00;;;7.40
18474;BMP180;30265;52.408;13.500;2023-03-14T16:48:55;100073.00;;;7.00
18474;BMP180;30265;52.408;13.500;2023-03-14T16:59:17;100152.00;;;7.20
18474;BMP180;30265;52.408;13.500;2023-03-14T17:09:41;100186.00;;;7.70
18474;BMP180;30265;52.408;13.500;2023-03-14T17:20:03;100233.00;;;7.70
18474;BMP180;30265;52.408;13.500;2023-03-14T17:30:28;100303.00;;;7.80
18474;BMP180;30265;52.408;13.500;2023-03-14T17:40:50;100317.00;;;7.60
18474;BMP180;30265;52.408;13.500;2023-03-14T17:51:14;100337.00;;;7.70
18474;BMP180;30265;52.408;13.500;2023-03-14T18:01:36;100388.00;;;7.80
18474;BMP180;30265;52.408;13.500;2023-03-14T18:12:00;100412.00;;;8.00
18474;BMP180;30265;52.408;13.500;2023-03-14T18:22:27;100479.00;;;8.30
18474;BMP180;30265;52.408;13.500;2023-03-14T18:32:51;100461.00;;;8.00
18474;BMP180;30265;52.408;13.500;2023-03-14T18:43:13;100495.00;;;8.30
18474;BMP180;30265;52.408;13.500;2023-03-14T18:53:37;100511.00;;;8.40
18474;BMP180;30265;52.408;13.500;2023-03-14T19:03:59;100552.00;;;8.40
18474;BMP180;30265;52.408;13.500;2023-03-14T19:14:22;100565.00;;;8.40
18474;BMP180;30265;52.408;13.500;2023-03-14T19:24:44;100599.00;;;8.60
18474;BMP180;30265;52.408;13.500;2023-03-14T19:35:07;100629.00;;;8.60
18474;BMP180;30265;52.408;13.500;2023-03-14T19:45:29;100655.00;;;8.90
18474;BMP180;30265;52.408;13.500;2023-03-14T19:55:55;100665.00;;;8.90
18474;BMP180;30265;52.408;13.500;2023-03-14T20:06:17;100700.00;;;9.00
18474;BMP180;30265;52.408;13.500;2023-03-14T20:16:42;100730.00;;;8.90
18474;BMP180;30265;52.408;13.500;2023-03-14T20:27:04;100758.00;;;8.80
18474;BMP180;30265;52.408;13.500;2023-03-14T20:37:28;100783.00;;;8.80
18474;BMP180;30265;52.408;13.500;2023-03-14T20:47:50;100813.00;;;8.70
18474;BMP180;30265;52.408;13.500;2023-03-14T20:58:13;100817.00;;;8.70
18474;BMP180;30265;52.408;13.500;2023-03-14T21:08:35;100843.00;;;8.60
18474;BMP180;30265;52.408;13.500;2023-03-14T21:18:58;100867.00;;;8.80
18474;BMP180;30265;52.408;13.500;2023-03-14T21:29:20;100878.00;;;8.50
18474;BMP180;30265;52.408;13.500;2023-03-14T21:39:44;100920.00;;;8.20
18474;BMP180;30265;52.408;13.500;2023-03-14T21:50:07;100946.00;;;8.10
18474;BMP180;30265;52.408;13.500;2023-03-14T22:00:30;100963.00;;;7.80
18474;BMP180;30265;52.408;13.500;2023-03-14T22:10:53;100962.00;;;7.70
18474;BMP180;30265;52.408;13.500;2023-03-14T22:21:16;100979.00;;;7.70
18474;BMP180;30265;52.408;13.500;2023-03-14T22:31:38;100996.00;;;7.50
18474;BMP180;30265;52.408;13.500;2023-03-14T22:42:02;101009.00;;;7.80
18474;BMP180;30265;52.408;13.500;2023-03-14T22:52:24;101040.00;;;7.90
18474;BMP180;30265;52.408;13.500;2023-03-14T23:02:52;101057.00;;;7.80
18474;BMP180;30265;52.408;13.500;2023-03-14T23:13:14;101063.00;;;7.50
18474;BMP180;30265;52.408;13.500;2023-03-14T23:23:38;101089.00;;;7.40
18474;BMP180;30265;52.408;13.500;2023-03-14T23:34:00;101104.00;;;7.10
18474;BMP180;30265;52.408;13.500;2023-03-14T23:44:23;101117.00;;;6.90
18474;BMP180;30265;52.408;13.500;2023-03-14T23:54:47;101140.00;;;6.90
